FW1704 Weather Reports


time (UTC)temp
C
wind
direction
speed
KPH
gust
KPH
rain 1hr
cm
rain 24hr
cm
rain mn
cm
humidity
%
barometer
mb
20260507224559 24 11 1.6 9.7 0.00 0.25 0.25 83 1014.0
20260507224051 24 65 0.0 6.4 0.00 0.25 0.25 83 1014.0
20260507223550 24 348 1.6 11.3 0.00 0.25 0.25 83 1014.0
20260507223053 24 86 1.6 11.3 0.00 0.25 0.25 83 1013.8
20260507222555 24 67 1.6 8.0 0.00 0.25 0.25 83 1013.8
20260507222051 24 64 1.6 8.0 0.00 0.25 0.25 83 1013.9
20260507221559 24 89 3.2 12.9 0.00 0.25 0.25 82 1013.8
20260507221051 25 42 3.2 12.9 0.00 0.25 0.25 82 1013.7
20260507220549 25 62 4.8 12.9 0.00 0.25 0.25 82 1013.8
20260507220055 25 98 4.8 11.3 0.00 0.25 0.25 82 1013.6
20260507215551 25 47 3.2 11.3 0.00 0.25 0.25 81 1013.6
20260507215049 25 15 3.2 11.3 0.00 0.25 0.25 81 1013.7
20260507214605 25 19 1.6 8.0 0.00 0.25 0.25 80 1013.7
20260507214050 25 42 1.6 8.0 0.00 0.25 0.25 80 1013.6
20260507213551 25 97 1.6 8.0 0.00 0.25 0.25 81 1013.7
20260507213057 25 36 1.6 6.4 0.00 0.25 0.25 80 1013.7
20260507212551 25 94 0.0 6.4 0.00 0.25 0.25 81 1013.6
20260507212053 25 69 3.2 12.9 0.00 0.25 0.25 81 1013.6
20260507211600 25 28 3.2 12.9 0.00 0.25 0.25 81 1013.7
20260507211049 25 38 3.2 12.9 0.00 0.25 0.25 80 1013.6
20260507210551 25 71 1.6 11.3 0.00 0.25 0.25 81 1013.6
20260507205552 25 5 4.8 14.5 0.00 0.25 0.25 80 1013.6
20260507205049 25 145 3.2 14.5 0.00 0.25 0.25 80 1013.6
20260507204601 25 328 6.4 14.5 0.00 0.25 0.25 80 1013.6
20260507204052 26 360 6.4 14.5 0.00 0.25 0.25 79 1013.6
20260507203551 26 52 3.2 11.3 0.00 0.25 0.25 79 1013.6
20260507203109 26 28 4.8 11.3 0.00 0.25 0.25 78 1013.7
20260507202550 26 100 3.2 9.7 0.00 0.25 0.25 78 1013.8
20260507202051 26 0 3.2 11.3 0.00 0.25 0.25 78 1013.7
20260507201600 26 98 3.2 11.3 0.00 0.25 0.25 77 1013.6
20260507201054 27 51 1.6 6.4 0.00 0.25 0.25 76 1013.7
20260507200551 27 24 1.6 6.4 0.00 0.25 0.25 76 1013.9
20260507200106 27 5 3.2 9.7 0.00 0.25 0.25 76 1013.9
20260507195549 27 348 3.2 12.9 0.00 0.25 0.25 74 1013.9
20260507195052 27 307 4.8 12.9 0.00 0.25 0.25 74 1013.9
20260507194559 27 316 1.6 11.3 0.00 0.25 0.25 74 1013.9
20260507194049 27 347 1.6 14.5 0.00 0.25 0.25 75 1013.9
20260507193549 27 70 1.6 14.5 0.00 0.25 0.25 75 1014.0
20260507193058 27 101 3.2 11.3 0.00 0.25 0.25 74 1014.1
20260507192551 27 47 1.6 11.3 0.00 0.25 0.25 74 1014.1
20260507192051 27 290 3.2 9.7 0.00 0.25 0.25 73 1014.1
20260507191602 27 355 1.6 9.7 0.00 0.25 0.25 73 1014.1
20260507191053 27 96 3.2 9.7 0.00 0.25 0.25 74 1014.1
20260507190553 28 96 1.6 9.7 0.00 0.25 0.25 72 1014.0
20260507190105 28 48 1.6 9.7 0.00 0.25 0.25 74 1014.2
20260507185553 27 327 1.6 11.3 0.00 0.25 0.25 74 1014.4
20260507185049 27 115 1.6 11.3 0.00 0.25 0.25 75 1014.4
20260507184558 26 0 1.6 8.0 0.00 0.25 0.25 76 1014.3
20260507184050 26 352 3.2 9.7 0.00 0.25 0.25 76 1014.3
20260507183554 26 57 0.0 9.7 0.00 0.25 0.25 78 1014.3
20260507183054 25 137 3.2 11.3 0.00 0.25 0.25 78 1014.4
20260507182552 26 34 3.2 12.9 0.00 0.25 0.25 77 1014.5
20260507182051 26 5 3.2 12.9 0.00 0.25 0.25 76 1014.6
20260507181553 26 63 1.6 9.7 0.00 0.25 0.25 78 1014.5
20260507181049 26 161 3.2 9.7 0.00 0.25 0.25 78 1014.6
20260507180549 25 186 1.6 9.7 0.00 0.25 0.25 80 1014.6
20260507180054 25 235 3.2 12.9 0.00 0.25 0.25 82 1014.6
20260507175550 25 94 3.2 12.9 0.00 0.25 0.25 81 1014.8
20260507175050 25 120 1.6 6.4 0.00 0.25 0.25 83 1014.8
20260507174557 24 44 1.6 8.0 0.00 0.25 0.25 84 1014.7
20260507174049 23 276 1.6 9.7 0.00 0.25 0.25 86 1014.7
20260507173549 22 346 4.8 14.5 0.00 0.25 0.25 87 1014.9
20260507173102 22 325 4.8 14.5 0.00 0.25 0.25 87 1014.9
20260507172552 22 295 3.2 11.3 0.00 0.25 0.25 88 1014.8
20260507172051 22 13 1.6 12.9 0.00 0.25 0.25 88 1015.0
20260507171555 22 190 3.2 12.9 0.00 0.25 0.25 89 1014.9
20260507171051 21 12 4.8 14.5 0.00 0.25 0.25 90 1015.0
20260507170551 21 55 3.2 14.5 0.00 0.25 0.25 90 1015.2
20260507165549 21 90 3.2 12.9 0.00 0.25 0.25 91 1015.3
20260507165051 20 341 3.2 12.9 0.00 0.25 0.25 91 1015.3
20260507164603 20 232 1.6 12.9 0.00 0.25 0.25 92 1015.3
20260507164052 20 101 4.8 16.1 0.00 0.25 0.25 92 1015.4
20260507163551 20 338 3.2 16.1 0.00 0.25 0.25 92 1015.5
20260507163102 20 5 4.8 17.7 0.00 0.25 0.25 92 1015.5
20260507162550 20 311 3.2 17.7 0.00 0.25 0.25 92 1015.6
20260507162051 20 319 1.6 17.7 0.00 0.25 0.25 93 1015.6
20260507161601 20 54 1.6 12.9 0.00 0.25 0.25 93 1015.5
20260507161050 20 61 3.2 12.9 0.00 0.25 0.25 93 1015.6
20260507160550 20 34 3.2 9.7 0.00 0.25 0.25 93 1015.6
20260507160101 20 317 1.6 8.0 0.00 0.25 0.25 93 1015.4
20260507155549 19 344 1.6 11.3 0.00 0.25 0.25 93 1015.2
20260507155050 19 5 1.6 11.3 0.00 0.25 0.25 93 1015.2
20260507154600 19 333 3.2 9.7 0.03 0.25 0.25 93 1015.2
20260507154052 19 119 0.0 9.7 0.05 0.25 0.25 93 1015.1
20260507153549 19 65 3.2 9.7 0.05 0.25 0.25 93 1015.2
20260507153111 19 71 1.6 8.0 0.05 0.25 0.25 93 1015.0
20260507152555 19 0 1.6 8.0 0.05 0.25 0.25 92 1014.9
20260507152051 19 77 1.6 9.7 0.05 0.25 0.25 92 1014.9
20260507151556 19 75 0.0 9.7 0.08 0.25 0.25 92 1014.9
20260507151049 19 331 1.6 9.7 0.08 0.25 0.25 92 1015.0
20260507150552 19 32 3.2 9.7 0.15 0.25 0.25 92 1015.0
20260507150051 19 28 1.6 9.7 0.15 0.25 0.25 92 1015.2
20260507145550 19 0 1.6 9.7 0.18 0.25 0.25 92 1015.3
20260507145050 19 360 3.2 9.7 0.18 0.25 0.25 92 1015.1
20260507144555 19 0 3.2 12.9 0.15 0.23 0.23 92 1015.3
20260507144053 19 75 3.2 12.9 0.13 0.20 0.20 92 1015.2
20260507143552 19 138 1.6 14.5 0.13 0.20 0.20 92 1015.2
20260507143058 19 306 3.2 14.5 0.15 0.20 0.20 92 1015.1
20260507142552 20 319 4.8 14.5 0.18 0.20 0.20 92 1015.1
20260507142049 20 284 1.6 9.7 0.18 0.20 0.20 92 1015.1
20260507141557 20 343 3.2 12.9 0.15 0.18 0.18 92 1015.1
20260507141050 20 323 1.6 14.5 0.15 0.18 0.18 92 1015.0
20260507140550 20 101 1.6 14.5 0.08 0.10 0.10 92 1014.9
20260507140052 20 317 4.8 12.9 0.08 0.10 0.10 92 1014.9
20260507135549 20 269 3.2 12.9 0.05 0.08 0.08 92 1014.8
20260507135050 20 61 4.8 12.9 0.05 0.08 0.08 92 1014.9
20260507134603 21 0 3.2 11.3 0.05 0.08 0.08 92 1014.7
20260507134049 21 329 3.2 11.3 0.05 0.08 0.08 92 1014.6
20260507133551 21 15 1.6 11.3 0.05 0.08 0.08 92 1014.5
20260507133118 21 321 0.0 11.3 0.03 0.05 0.05 92 1014.3
20260507132550 21 34 3.2 8.0 0.00 0.03 0.03 92 1014.2
20260507132049 21 335 1.6 12.9 0.00 0.03 0.03 92 1014.5
20260507131555 21 341 3.2 12.9 0.00 0.03 0.03 92 1014.7
20260507131049 21 329 1.6 9.7 0.00 0.03 0.03 92 1014.6
20260507130548 21 331 3.2 12.9 0.00 0.03 0.03 92 1014.6
20260507130108 21 118 3.2 12.9 0.00 0.03 0.03 92 1014.4
20260507125550 21 322 3.2 12.9 0.00 0.03 0.03 92 1014.4
20260507125049 21 9 3.2 11.3 0.00 0.03 0.03 92 1014.3
20260507124552 22 306 1.6 12.9 0.03 0.03 0.03 92 1014.1
20260507124050 22 5 4.8 12.9 0.03 0.03 0.03 92 1014.1
20260507123550 22 267 3.2 9.7 0.03 0.03 0.03 92 1014.0
20260507123053 22 338 3.2 9.7 0.03 0.03 0.03 91 1013.9
20260507122548 22 319 3.2 9.7 0.03 0.03 0.03 92 1013.8
20260507122053 22 271 3.2 9.7 0.03 0.03 0.03 91 1013.6
20260507121606 22 297 4.8 9.7 0.03 0.03 0.03 91 1013.9
20260507121050 22 344 1.6 6.4 0.03 0.03 0.03 91 1013.6
20260507120552 22 5 0.0 8.0 0.03 0.03 0.03 91 1013.4
20260507115552 23 300 3.2 8.0 0.03 0.03 0.03 91 1013.1
20260507115054 23 306 0.0 11.3 0.03 0.03 0.03 91 1013.0
20260507114634 23 284 3.2 11.3 0.00 0.00 0.00 91 1012.8
20260507114053 24 155 1.6 17.7 0.00 0.00 0.00 91 1012.9
20260507113552 24 60 6.4 17.7 0.00 0.00 0.00 91 1012.7
20260507113053 25 0 1.6 9.7 0.00 0.00 0.00 91 1012.6
20260507112552 25 222 1.6 11.3 0.00 0.00 0.00 91 1012.5
20260507112054 25 0 3.2 11.3 0.00 0.00 0.00 91 1012.5
20260507111558 25 256 1.6 11.3 0.00 0.00 0.00 91 1012.3
20260507111056 25 217 1.6 11.3 0.00 0.00 0.00 91 1012.2
20260507110552 25 323 1.6 9.7 0.00 0.00 0.00 91 1012.1
20260507110052 25 259 3.2 9.7 0.00 0.00 0.00 91 1012.1
20260507105552 25 180 3.2 9.7 0.00 0.00 0.00 91 1012.0
20260507105052 25 223 3.2 12.9 0.00 0.00 0.00 91 1012.1
20260507104553 25 257 1.6 12.9 0.00 0.00 0.00 91 1012.0
20260507104050 25 253 3.2 17.7 0.00 0.00 0.00 91 1012.0
20260507103552 25 240 6.4 17.7 0.00 0.00 0.00 91 1011.8
20260507103053 25 238 3.2 12.9 0.00 0.00 0.00 91 1011.9
20260507102552 25 232 3.2 12.9 0.00 0.00 0.00 91 1011.9
20260507102050 25 227 3.2 11.3 0.00 0.00 0.00 91 1011.7
20260507101558 25 252 3.2 11.3 0.00 0.00 0.00 91 1011.7
20260507101052 25 175 3.2 11.3 0.00 0.00 0.00 91 1011.7
20260507100553 25 239 4.8 12.9 0.00 0.00 0.00 91 1011.7
20260507095554 25 225 4.8 14.5 0.00 0.00 0.00 91 1011.7
20260507095052 25 225 3.2 12.9 0.00 0.00 0.00 91 1011.8
20260507094552 25 175 3.2 9.7 0.00 0.00 0.00 91 1011.6
20260507094054 25 231 1.6 16.1 0.00 0.00 0.00 91 1011.6
20260507093552 25 240 3.2 16.1 0.00 0.00 0.00 91 1011.5
20260507093055 25 0 3.2 14.5 0.00 0.00 0.00 91 1011.5
20260507092552 25 236 6.4 14.5 0.00 0.00 0.00 91 1011.4
20260507092053 25 260 3.2 12.9 0.00 0.00 0.00 91 1011.4
20260507091553 25 257 3.2 12.9 0.00 0.00 0.00 91 1011.5
20260507091052 25 235 1.6 14.5 0.00 0.00 0.00 91 1011.4
20260507090632 25 205 4.8 14.5 0.00 0.00 0.00 91 1011.5
20260507090054 25 199 3.2 11.3 0.00 0.00 0.00 91 1011.4
20260507085550 25 231 3.2 11.3 0.00 0.00 0.00 91 1011.5
20260507085051 25 177 3.2 12.9 0.00 0.00 0.00 91 1011.5
20260507084601 25 233 3.2 12.9 0.00 0.00 0.00 91 1011.6
20260507084052 25 236 3.2 11.3 0.00 0.00 0.00 91 1011.6
20260507083552 25 222 3.2 12.9 0.00 0.00 0.00 91 1011.4
20260507083057 25 260 4.8 12.9 0.00 0.00 0.00 91 1011.5
20260507082549 25 220 1.6 11.3 0.00 0.00 0.00 91 1011.4
20260507082049 25 246 3.2 11.3 0.00 0.00 0.00 91 1011.4
20260507081552 25 240 4.8 11.3 0.00 0.00 0.00 91 1011.4
20260507081049 25 209 1.6 12.9 0.00 0.00 0.00 91 1011.2
20260507080548 25 225 3.2 12.9 0.00 0.00 0.00 91 1011.3
20260507080117 25 229 3.2 12.9 0.00 0.00 0.00 91 1011.3
20260507075549 25 209 4.8 12.9 0.00 0.00 0.00 91 1011.4
20260507075051 25 200 4.8 12.9 0.00 0.00 0.00 91 1011.5
20260507074552 25 210 6.4 12.9 0.00 0.00 0.00 91 1011.5
20260507074050 25 194 3.2 11.3 0.00 0.00 0.00 91 1011.6
20260507073550 25 237 4.8 11.3 0.00 0.00 0.00 91 1011.7
20260507073105 25 277 3.2 11.3 0.00 0.00 0.00 91 1011.8
20260507072551 25 257 3.2 9.7 0.00 0.00 0.00 91 1011.9
20260507072051 25 234 4.8 9.7 0.00 0.00 0.00 91 1012.0
20260507071554 25 248 3.2 8.0 0.00 0.00 0.00 91 1012.0
20260507071051 25 201 3.2 11.3 0.00 0.00 0.00 91 1012.0
20260507070549 25 213 3.2 11.3 0.00 0.00 0.00 91 1012.0
20260507070056 25 186 3.2 8.0 0.00 0.00 0.00 91 1012.1
20260507065550 25 145 1.6 8.0 0.00 0.00 0.00 91 1012.1
20260507065049 25 259 1.6 12.9 0.00 0.00 0.00 91 1012.1
20260507064559 25 275 3.2 12.9 0.00 0.00 0.00 91 1012.2
20260507064049 25 224 3.2 8.0 0.00 0.00 0.00 91 1012.2
20260507063548 25 214 1.6 8.0 0.00 0.00 0.00 91 1012.2
20260507063104 25 262 1.6 8.0 0.00 0.00 0.00 91 1012.2
20260507062552 25 225 3.2 12.9 0.00 0.00 0.00 91 1012.1
20260507062050 25 0 4.8 12.9 0.00 0.00 0.00 91 1012.3
20260507061552 25 173 4.8 17.7 0.00 0.00 0.00 91 1012.2
20260507061049 25 236 3.2 17.7 0.00 0.00 0.00 91 1012.3
20260507060549 25 248 3.2 16.1 0.00 0.00 0.00 91 1012.3
20260507055552 25 209 6.4 16.1 0.00 0.00 0.00 91 1012.2
20260507055053 25 217 4.8 12.9 0.00 0.00 0.00 91 1012.2
20260507054556 25 256 3.2 20.9 0.00 0.00 0.00 91 1012.1
20260507054052 25 273 3.2 20.9 0.00 0.00 0.00 91 1012.2
20260507053553 25 250 6.4 20.9 0.00 0.00 0.00 91 1012.1
20260507053113 25 232 6.4 17.7 0.00 0.00 0.00 91 1012.1
20260507052550 25 248 6.4 17.7 0.00 0.00 0.00 91 1012.1
20260507052049 25 243 4.8 16.1 0.00 0.00 0.00 91 1012.1
20260507051605 25 261 6.4 16.1 0.00 0.00 0.00 91 1012.2
20260507051054 25 237 4.8 11.3 0.00 0.00 0.00 91 1012.1
20260507050549 25 217 3.2 14.5 0.00 0.00 0.00 91 1012.1
20260507050057 25 261 4.8 14.5 0.00 0.00 0.00 91 1012.1
20260507045549 25 233 6.4 17.7 0.00 0.00 0.00 91 1012.1
20260507045050 25 253 6.4 17.7 0.00 0.00 0.00 90 1012.1
20260507044556 25 261 6.4 14.5 0.00 0.00 0.00 90 1012.1
20260507044052 25 256 3.2 14.5 0.00 0.00 0.00 90 1012.0
20260507043551 25 263 4.8 12.9 0.00 0.00 0.00 90 1011.8
20260507043056 25 267 4.8 14.5 0.00 0.00 0.00 90 1011.4
20260507042551 25 123 6.4 16.1 0.00 0.00 0.00 90 1011.2
20260507042051 25 220 6.4 16.1 0.00 0.00 0.00 90 1011.1
20260507041556 25 200 4.8 17.7 0.00 0.00 0.00 90 1011.3
20260507041051 25 227 6.4 22.5 0.00 0.00 0.00 90 1011.2
20260507040549 25 58 6.4 22.5 0.00 0.00 0.00 90 1011.2
20260507040057 25 227 6.4 16.1 0.00 0.00 0.00 90 1011.3
20260507035551 25 195 4.8 14.5 0.00 0.00 0.00 90 1011.3
20260507035049 25 187 4.8 17.7 0.00 0.00 0.00 90 1011.3
20260507034558 25 189 6.4 17.7 0.00 0.00 0.00 90 1011.3
20260507034051 25 226 4.8 14.5 0.00 0.00 0.00 90 1011.4
20260507033549 25 218 6.4 16.1 0.00 0.00 0.00 90 1011.5
20260507033101 25 222 6.4 17.7 0.00 0.00 0.00 90 1011.5
20260507032552 25 182 6.4 17.7 0.00 0.00 0.00 90 1011.6
20260507032051 25 155 4.8 12.9 0.00 0.00 0.00 90 1011.8
20260507031559 25 273 6.4 12.9 0.00 0.00 0.00 90 1011.6
20260507031051 25 227 3.2 12.9 0.00 0.00 0.00 90 1011.5
20260507030548 25 266 4.8 16.1 0.00 0.00 0.00 89 1011.4
20260507030054 25 200 4.8 16.1 0.00 0.00 0.00 89 1011.5
20260507025549 25 247 3.2 12.9 0.00 0.00 0.00 89 1011.6
20260507025049 25 219 4.8 11.3 0.00 0.00 0.00 89 1011.8
20260507024607 25 217 1.6 11.3 0.00 0.00 0.00 89 1011.8
20260507024053 25 211 3.2 11.3 0.00 0.00 0.00 89 1011.9
20260507023554 26 91 3.2 8.0 0.00 0.00 0.00 89 1012.1
20260507023053 26 96 1.6 11.3 0.00 0.00 0.00 89 1012.3
20260507022559 26 13 1.6 11.3 0.00 0.00 0.00 89 1012.3
20260507022053 26 211 3.2 11.3 0.00 0.00 0.00 89 1012.4
20260507021553 26 250 3.2 9.7 0.00 0.00 0.00 89 1012.2
20260507021048 26 268 1.6 9.7 0.00 0.00 0.00 88 1012.3
20260507020551 26 254 1.6 11.3 0.00 0.00 0.00 88 1012.2
20260507020109 26 266 3.2 11.3 0.00 0.00 0.00 88 1012.1
20260507015553 26 246 3.2 11.3 0.00 0.00 0.00 88 1012.0
20260507015050 26 193 0.0 12.9 0.00 0.00 0.00 88 1011.8
20260507014601 26 191 3.2 12.9 0.00 0.00 0.00 88 1011.8
20260507014050 26 209 3.2 12.9 0.00 0.00 0.00 88 1011.7
20260507013552 26 163 3.2 12.9 0.00 0.00 0.00 87 1011.7
20260507013057 26 235 3.2 11.3 0.00 0.00 0.00 87 1011.5
20260507012552 26 148 3.2 11.3 0.00 0.00 0.00 87 1011.4
20260507012050 26 252 4.8 11.3 0.00 0.00 0.00 87 1011.5
20260507011552 26 234 4.8 12.9 0.00 0.00 0.00 87 1011.4
20260507011049 26 248 3.2 12.9 0.00 0.00 0.00 86 1011.4
20260507010551 26 261 4.8 12.9 0.00 0.00 0.00 86 1011.3
20260507005551 26 248 1.6 9.7 0.00 0.00 0.00 86 1011.3
20260507005052 26 195 3.2 9.7 0.00 0.00 0.00 86 1011.1
20260507004605 26 200 3.2 9.7 0.00 0.00 0.00 86 1010.9
20260507004052 26 5 3.2 11.3 0.00 0.00 0.00 85 1010.9
20260507003553 26 276 3.2 11.3 0.00 0.00 0.00 85 1011.0
20260507003056 26 225 3.2 16.1 0.00 0.00 0.00 85 1010.9
20260507002550 26 267 4.8 16.1 0.00 0.00 0.00 85 1010.8
20260507002050 26 146 3.2 16.1 0.00 0.00 0.00 85 1010.6
20260507001555 26 140 8.0 14.5 0.00 0.00 0.00 85 1010.7
20260507001049 26 111 3.2 12.9 0.00 0.00 0.00 84 1010.6
20260507000549 26 212 4.8 12.9 0.00 0.00 0.00 84 1010.9
20260507000058 26 248 4.8 14.5 0.00 0.00 0.00 84 1011.1
20260506235552 26 238 3.2 17.7 0.00 0.00 0.00 84 1011.1
20260506235050 27 227 6.4 17.7 0.00 0.00 0.00 83 1011.1
20260506234555 27 107 6.4 17.7 0.00 0.00 0.00 83 1011.2
20260506234050 27 269 8.0 17.7 0.00 0.00 0.00 83 1011.0
20260506233551 27 242 6.4 14.5 0.00 0.00 0.00 83 1011.0
20260506233110 27 214 3.2 12.9 0.00 0.00 0.00 82 1011.0
20260506232550 27 248 4.8 16.1 0.00 0.00 0.00 82 1010.8
20260506232051 27 276 4.8 16.1 0.00 0.00 0.00 82 1010.9
20260506231600 27 198 4.8 16.1 0.00 0.00 0.00 81 1010.9
20260506231052 27 147 3.2 16.1 0.00 0.00 0.00 81 1010.9
20260506230550 27 271 3.2 16.1 0.00 0.00 0.00 80 1010.8
20260506230059 27 227 3.2 16.1 0.00 0.00 0.00 80 1010.9
20260506225548 27 61 4.8 16.1 0.00 0.00 0.00 80 1010.8
20260506225051 28 351 3.2 12.9 0.00 0.00 0.00 79 1010.9